HOURLY OBS INDEX

029

Gulf Country

BURKETOWN AIRPORT

Site: 029077
Alt: 5.7m
2km S of BURKETOWN


  Time     Wind        Temp  DP   Baro     Rain since   Rain past  Vis(m), Cloud(base in m), Weather
  local        km/h                         9am  last   hr   10m    
Thu 09:00    S 20/ 26  17.1 -2.0  1019.5    0.0   0.0   0.0   0.0   ----- 
Thu 09:30  SSE 22/ 35  19.0 -2.6  1019.5    0.0   0.0   0.0   0.0   ----- 
Thu 10:00  SSE 28/ 37  20.0 -3.0  1019.5    0.0   0.0   0.0   0.0   ----- 
Thu 10:30  SSE 26/ 37  21.2 -3.3  1019.2    0.0   0.0   0.0   0.0   ----- 
Thu 11:00  SSE 26/ 32  22.7 -2.8  1018.9    0.0   0.0   0.0   0.0   ----- 
Thu 11:30  SSE 20/ 28  23.8 -3.5  1018.6    0.0   0.0   0.0   0.0   ----- 
Thu 12:00  SSE 17/ 26  25.4 -4.0  1018.3    0.0   0.0   0.0   0.0   ----- 
Thu 12:30  SSE 19/ 24  26.2 -4.4  1017.9    0.0   0.0   0.0   0.0   ----- 
Thu 13:00    S 19/ 24  27.2 -4.6  1017.4    0.0   0.0   0.0   0.0   ----- 
Thu 13:30    S 15/ 20  27.3 -5.7  1016.9    0.0   0.0   0.0   0.0   ----- 
Thu 14:00  SSE 15/ 22  27.4 -6.9  1016.5    0.0   0.0   0.0   0.0   ----- 

CENTURY MINE

Site: 029167
Alt: 126.8m
144km SW of BURKETOWN


  Time     Wind        Temp  DP   Baro     Rain since   Rain past  Vis(m), Cloud(base in m), Weather
  local        km/h                         9am  last   hr   10m    
Thu 09:00    S 13/ 20  16.8 -4.4  1020.8    0.0   0.0   0.0   0.0   ----- 
Thu 09:30    S 13/ 20  17.8 -4.8  1020.8    0.0   0.0   0.0   0.0   ----- 
Thu 10:00    S 13/ 20  19.8 -4.5  1020.8    0.0   0.0   0.0   0.0   ----- 
Thu 10:30  SSE 13/ 19  21.1 -4.9  1020.4    0.0   0.0   0.0   0.0   ----- 
Thu 11:00    S 13/ 24  22.1 -5.7  1020.2    0.0   0.0   0.0   0.0   ----- 
Thu 11:30    S 11/ 17  23.1 -5.8  1020.0    0.0   0.0   0.0   0.0   ----- 
Thu 12:00    S 13/ 19  23.9 -5.2  1019.3    0.0   0.0   0.0   0.0   ----- 
Thu 12:30  SSE 11/ 19  24.9 -5.4  1018.8    0.0   0.0   0.0   0.0   ----- 
Thu 13:00    S  9/ 20  25.6 -7.0  1018.3    0.0   0.0   0.0   0.0   ----- 
Thu 13:30  SSE  7/ 17  26.0 -9.3  1017.7    0.0   0.0   0.0   0.0   ----- 
Thu 14:00    S  9/ 15  27.2 -7.0  1017.4    0.0   0.0   0.0   0.0   ----- 

CLONCURRY AIRPORT

Site: 029141
Alt: 186.0m
105km E of MOUNT ISA


  Time     Wind        Temp  DP   Baro     Rain since   Rain past  Vis(m), Cloud(base in m), Weather
  local        km/h                         9am  last   hr   10m    
Thu 09:00  SSW 15/ 19  14.0 -2.4  1021.3    0.0   0.0   0.0   0.0   ----- 
Thu 09:30    S 19/ 22  16.0 -3.0  1021.4    0.0   0.0   0.0   0.0   ----- 
Thu 10:00    S 17/ 19  17.2 -3.0  1021.3    0.0   0.0   0.0   0.0   ----- 
Thu 10:30    S 15/ 20  18.9 -2.1  1021.2    0.0   0.0   0.0   0.0   ----- 
Thu 11:00   SE 24/ 30  21.0 -4.2  1020.9    0.0   0.0   0.0   0.0   ----- 
Thu 11:30   SE 24/ 33  21.3 -4.7  1020.7    0.0   0.0   0.0   0.0   ----- 
Thu 12:00   SE 19/ 30  22.3 -4.7  1020.4    0.0   0.0   0.0   0.0   ----- 
Thu 12:30  SSE 20/ 30  23.0 -4.1  1020.0    0.0   0.0   0.0   0.0   ----- 
Thu 13:00   SE 24/ 30  23.1 -4.9  1019.5    0.0   0.0   0.0   0.0   ----- 
Thu 13:30   SE 20/ 28  23.2 -4.8  1018.8    0.0   0.0   0.0   0.0   ----- 
Thu 14:00   SE 22/ 35  23.4 -4.7  1018.5    0.0   0.0   0.0   0.0   ----- 

JULIA CREEK AIRPORT

Site: 029058
Alt: 122.5m
232km E of MOUNT ISA


  Time     Wind        Temp  DP   Baro     Rain since   Rain past  Vis(m), Cloud(base in m), Weather
  local        km/h                         9am  last   hr   10m    
Thu 09:00  ESE 24/ 30  13.7 -2.7  1020.8    0.0   0.0   0.0   0.0   10000 
Thu 09:30  ESE 22/ 26  15.2 -2.7  1021.0    0.0   0.0   0.0   0.0   10000 
Thu 10:00  ESE 17/ 22  17.9 -1.9  1020.8    0.0   0.0   0.0   0.0   10000 
Thu 10:30  ESE 17/ 20  19.0 -2.0  1020.7    0.0   0.0   0.0   0.0   10000 
Thu 11:00    E 11/ 17  20.2 -2.2  1020.4    0.0   0.0   0.0   0.0   10000 
Thu 11:30  ESE  9/ 13  20.9 -2.9  1020.1    0.0   0.0   0.0   0.0   10000 
Thu 12:00  ESE  4/ 11  22.4 -1.6  1019.8    0.0   0.0   0.0   0.0   10000 
Thu 12:30  ESE  6/  9  23.1 -1.1  1019.5    0.0   0.0   0.0   0.0   10000 
Thu 13:00  WNW  7/  9  23.1 -1.8  1018.8    0.0   0.0   0.0   0.0   10000 
Thu 13:30  SSE 11/ 17  23.7 -2.0  1018.3    0.0   0.0   0.0   0.0   10000 
Thu 14:00    S  9/ 17  25.2 -1.6  1017.8    0.0   0.0   0.0   0.0   10000 

KOWANYAMA AIRPORT

Site: 029038
Alt: 9.6m
253km NNE of NORMANTON


  Time     Wind        Temp  DP   Baro     Rain since   Rain past  Vis(m), Cloud(base in m), Weather
  local        km/h                         9am  last   hr   10m    
Thu 09:00    E 13/ 20  21.0 13.9  1018.1    0.0   0.0   0.0   0.0   ----- 
Thu 09:30  ENE 15/ 28  22.2 13.5  1018.0    0.0   0.0   0.0   0.0   ----- 
Thu 10:00  ENE 15/ 20  23.6 13.5  1018.0    0.0   0.0   0.0   0.0   10000 
Thu 10:30    E 13/ 19  24.6 13.5  1017.7    0.0   0.0   0.0   0.0   10000 
Thu 11:00  ENE 13/ 20  25.2 12.8  1017.4    0.0   0.0   0.0   0.0   10000 
Thu 11:30  ESE 13/ 19  26.8 13.5  1017.1    0.0   0.0   0.0   0.0   10000 
Thu 12:00  ESE 15/ 24  27.5 11.9  1016.7    0.0   0.0   0.0   0.0   10000 
Thu 12:30    E 11/ 20  28.0 12.0  1016.4    0.0   0.0   0.0   0.0   10000 
Thu 13:00  SSE 15/ 20  28.3 10.9  1016.0    0.0   0.0   0.0   0.0   10000 
Thu 13:30   SE 11/ 19  28.3 10.9  1015.4    0.0   0.0   0.0   0.0   10000 
Thu 14:00    E 13/ 20  29.4 11.5  1015.1    0.0   0.0   0.0   0.0   10000 

LAKE JULIUS AWS

Site: 029181
Alt: 237.0m
km of


  Time     Wind        Temp  DP   Baro     Rain since   Rain past  Vis(m), Cloud(base in m), Weather
  local        km/h                         9am  last   hr   10m    
Thu 09:00  SSW  7/ 11  15.3 -0.9  ------    0.0   0.0   0.0   0.0   ----- 
Thu 09:30    S  9/ 13  16.4 -1.2  ------    0.0   0.0   0.0   0.0   ----- 
Thu 10:00  SSW  9/ 13  17.7 -1.5  ------    0.0   0.0   0.0   0.0   ----- 
Thu 10:30    S  7/ 15  19.3 -2.3  ------    0.0   0.0   0.0   0.0   ----- 
Thu 11:00   SE  9/ 20  21.4 -1.8  ------    0.0   0.0   0.0   0.0   ----- 
Thu 11:30    E 11/ 22  21.6 -3.0  ------    0.0   0.0   0.0   0.0   ----- 
Thu 12:00   SE 13/ 22  21.4 -3.9  ------    0.0   0.0   0.0   0.0   ----- 
Thu 12:30  SSE 13/ 28  22.6 -2.9  ------    0.0   0.0   0.0   0.0   ----- 
Thu 13:00  SSE 13/ 22  22.4 -3.1  ------    0.0   0.0   0.0   0.0   ----- 
Thu 13:30    S 11/ 19  23.0 -3.3  ------    0.0   0.0   0.0   0.0   ----- 
Thu 14:00  SSE  9/ 17  23.4 -3.8  ------    0.0   0.0   0.0   0.0   ----- 

MORNINGTON ISLAND AIRPORT

Site: 029182
Alt: 9.5m
km of


  Time     Wind        Temp  DP   Baro     Rain since   Rain past  Vis(m), Cloud(base in m), Weather
  local        km/h                         9am  last   hr   10m    
Thu 09:00  SSE 19/ 32  19.2  8.8  1019.0    0.0   0.0   0.0   0.0   ----- 
Thu 09:30   SE 24/ 35  19.3  9.2  1019.1    0.0   0.0   0.0   0.0   ----- 
Thu 10:00  SSE 24/ 35  19.4  9.0  1019.4    0.0   0.0   0.0   0.0   ----- 
Thu 10:30  SSE 20/ 32  19.7  9.0  1019.3    0.0   0.0   0.0   0.0   ----- 
Thu 11:00  SSE 20/ 32  19.8  9.1  1019.0    0.0   0.0   0.0   0.0   ----- 
Thu 11:30    S 20/ 30  20.6  8.9  1018.8    0.0   0.0   0.0   0.0   ----- 
Thu 12:00  SSE 20/ 30  20.7  8.4  1018.6    0.0   0.0   0.0   0.0   ----- 
Thu 12:30  SSE 19/ 30  20.8  9.1  1018.2    0.0   0.0   0.0   0.0   ----- 
Thu 13:00  SSE 20/ 32  20.6  8.9  1018.0    0.0   0.0   0.0   0.0   ----- 
Thu 13:30  SSE 17/ 26  21.4  9.9  1017.5    0.0   0.0   0.0   0.0   ----- 
Thu 14:00  SSE 17/ 26  21.3  9.5  1017.2    0.0   0.0   0.0   0.0   ----- 

MOUNT ISA AERO

Site: 029127
Alt: 340.3m
5km N of MOUNT ISA


  Time     Wind        Temp  DP   Baro     Rain since   Rain past  Vis(m), Cloud(base in m), Weather
  local        km/h                         9am  last   hr   10m    
Thu 09:00    S 13/ 15  13.1 -2.8  1022.2    0.0   0.0   0.0   0.0   10000 
Thu 09:30    S 13/ 15  14.8 -2.6  1022.2    0.0   0.0   0.0   0.0   10000 
Thu 10:00    S  9/ 13  16.8 -2.3  1022.3    0.0   0.0   0.0   0.0   10000 
Thu 10:30  ESE 19/ 26  19.5 -3.4  1022.0    0.0   0.0   0.0   0.0   10000 
Thu 11:00  ESE 22/ 28  20.1 -3.5  1022.0    0.0   0.0   0.0   0.0   10000 
Thu 11:30  ESE 17/ 26  20.6 -4.5  1021.7    0.0   0.0   0.0   0.0   10000 
Thu 12:00   SE 17/ 28  20.9 -4.3  1021.4    0.0   0.0   0.0   0.0   10000 
Thu 12:30   SE 17/ 24  21.3 -4.0  1021.0    0.0   0.0   0.0   0.0   10000 
Thu 13:00   SE 17/ 24  21.4 -4.6  1020.4    0.0   0.0   0.0   0.0   10000 
Thu 13:30   SE 15/ 22  22.2 -4.8  1019.9    0.0   0.0   0.0   0.0   10000 
Thu 14:00  SSE 17/ 28  22.7 -4.4  1019.4    0.0   0.0   0.0   0.0   10000 

NORMANTON AIRPORT

Site: 029063
Alt: 18.4m
3km SSE of NORMANTON


  Time     Wind        Temp  DP   Baro     Rain since   Rain past  Vis(m), Cloud(base in m), Weather
  local        km/h                         9am  last   hr   10m    
Thu 09:00    S 17/ 20  16.0 -1.1  1019.4    0.0   0.0   0.0   0.0   10000 
Thu 09:30  SSE 15/ 19  16.8  0.5  1019.2    0.0   0.0   0.0   0.0   10000 
Thu 10:00  SSE 11/ 15  18.1  2.0  1019.1    0.0   0.0   0.0   0.0   10000 
Thu 10:30  SSE 11/ 15  19.4  2.7  1018.8    0.0   0.0   0.0   0.0   10000 
Thu 11:00   SE  9/ 13  21.4  3.6  1018.6    0.0   0.0   0.0   0.0   10000 
Thu 11:30  ESE  7/ 15  22.8  4.3  1018.0    0.0   0.0   0.0   0.0   10000 
Thu 12:00   NE  6/ 11  24.1  5.0  1017.6    0.0   0.0   0.0   0.0   10000 
Thu 12:30  NNE  7/ 15  25.1  5.8  1017.5    0.0   0.0   0.0   0.0   10000 
Thu 13:00    N  9/ 15  26.0  6.1  1017.2    0.0   0.0   0.0   0.0   10000 
Thu 13:30   NE  7/ 17  27.0  5.9  1016.6    0.0   0.0   0.0   0.0   10000 
Thu 14:00    N  6/ 11  27.2  4.9  1016.2    0.0   0.0   0.0   0.0   10000